sensor_id;sensor_type;location;lat;lon;timestamp;pressure;altitude;pressure_sealevel;temperature;humidity
68634;BME280;55625;47.072;22.192;2022-10-16T00:01:28;100429.41;;;9.32;98.18
68634;BME280;55625;47.072;22.192;2022-10-16T00:03:56;100424.97;;;9.31;98.04
68634;BME280;55625;47.072;22.192;2022-10-16T00:06:23;100424.16;;;9.30;97.97
68634;BME280;55625;47.072;22.192;2022-10-16T00:08:50;100424.22;;;9.27;98.83
68634;BME280;55625;47.072;22.192;2022-10-16T00:11:21;100426.69;;;9.25;98.33
68634;BME280;55625;47.072;22.192;2022-10-16T00:13:50;100423.44;;;9.26;98.09
68634;BME280;55625;47.072;22.192;2022-10-16T00:16:17;100435.56;;;9.27;98.32
68634;BME280;55625;47.072;22.192;2022-10-16T00:18:43;100435.25;;;9.21;98.46
68634;BME280;55625;47.072;22.192;2022-10-16T00:21:14;100445.75;;;9.21;98.93
68634;BME280;55625;47.072;22.192;2022-10-16T00:23:41;100441.31;;;9.20;98.73
68634;BME280;55625;47.072;22.192;2022-10-16T00:26:10;100455.50;;;9.20;98.60
68634;BME280;55625;47.072;22.192;2022-10-16T00:28:37;100447.78;;;9.20;99.04
68634;BME280;55625;47.072;22.192;2022-10-16T00:31:10;100447.00;;;9.20;98.86
68634;BME280;55625;47.072;22.192;2022-10-16T00:33:37;100445.38;;;9.19;99.49
68634;BME280;55625;47.072;22.192;2022-10-16T00:36:05;100447.78;;;9.20;99.38
68634;BME280;55625;47.072;22.192;2022-10-16T00:38:32;100450.19;;;9.22;99.28
68634;BME280;55625;47.072;22.192;2022-10-16T00:40:58;100442.13;;;9.20;99.38
68634;BME280;55625;47.072;22.192;2022-10-16T00:43:46;100447.00;;;9.20;98.91
68634;BME280;55625;47.072;22.192;2022-10-16T00:46:38;100449.81;;;9.20;99.12
68634;BME280;55625;47.072;22.192;2022-10-16T00:49:17;100446.22;;;9.16;99.73
68634;BME280;55625;47.072;22.192;2022-10-16T00:51:50;100451.06;;;9.15;99.35
68634;BME280;55625;47.072;22.192;2022-10-16T00:54:25;100451.13;;;9.12;99.16
68634;BME280;55625;47.072;22.192;2022-10-16T00:56:53;100460.47;;;9.09;98.98
68634;BME280;55625;47.072;22.192;2022-10-16T00:59:25;100450.72;;;9.13;98.33
68634;BME280;55625;47.072;22.192;2022-10-16T01:01:53;100446.38;;;9.05;98.92
68634;BME280;55625;47.072;22.192;2022-10-16T01:04:20;100442.38;;;9.02;98.67
68634;BME280;55625;47.072;22.192;2022-10-16T01:08:08;100446.06;;;8.99;99.02
68634;BME280;55625;47.072;22.192;2022-10-16T01:13:11;100446.16;;;8.92;98.54
68634;BME280;55625;47.072;22.192;2022-10-16T01:18:39;100449.06;;;8.85;99.35
68634;BME280;55625;47.072;22.192;2022-10-16T01:21:41;100436.19;;;8.81;99.35
68634;BME280;55625;47.072;22.192;2022-10-16T01:30:02;100452.59;;;8.62;99.60
68634;BME280;55625;47.072;22.192;2022-10-16T01:35:46;100457.06;;;8.60;99.18
68634;BME280;55625;47.072;22.192;2022-10-16T01:38:32;100459.97;;;8.53;100.00
68634;BME280;55625;47.072;22.192;2022-10-16T01:41:07;100466.44;;;8.53;99.91
68634;BME280;55625;47.072;22.192;2022-10-16T01:43:46;100460.81;;;8.50;99.85
68634;BME280;55625;47.072;22.192;2022-10-16T01:46:15;100460.00;;;8.49;99.39
68634;BME280;55625;47.072;22.192;2022-10-16T01:48:42;100469.72;;;8.48;99.39
68634;BME280;55625;47.072;22.192;2022-10-16T01:51:17;100460.47;;;8.44;99.44
68634;BME280;55625;47.072;22.192;2022-10-16T01:53:50;100458.13;;;8.39;100.00
68634;BME280;55625;47.072;22.192;2022-10-16T01:56:18;100461.38;;;8.37;100.00
68634;BME280;55625;47.072;22.192;2022-10-16T01:59:03;100464.19;;;8.37;100.00
68634;BME280;55625;47.072;22.192;2022-10-16T02:01:34;100474.31;;;8.35;100.00
68634;BME280;55625;47.072;22.192;2022-10-16T02:04:12;100475.81;;;8.47;99.99
68634;BME280;55625;47.072;22.192;2022-10-16T02:06:38;100479.94;;;8.38;100.00
68634;BME280;55625;47.072;22.192;2022-10-16T02:09:04;100490.78;;;8.44;100.00
68634;BME280;55625;47.072;22.192;2022-10-16T02:11:30;100484.31;;;8.43;100.00
68634;BME280;55625;47.072;22.192;2022-10-16T02:14:03;100478.66;;;8.43;100.00
68634;BME280;55625;47.072;22.192;2022-10-16T02:16:37;100485.97;;;8.40;100.00
68634;BME280;55625;47.072;22.192;2022-10-16T02:19:04;100489.19;;;8.43;100.00
68634;BME280;55625;47.072;22.192;2022-10-16T02:29:38;100498.81;;;8.49;100.00
68634;BME280;55625;47.072;22.192;2022-10-16T02:32:07;100502.88;;;8.48;100.00
68634;BME280;55625;47.072;22.192;2022-10-16T02:34:34;100489.09;;;8.50;100.00
68634;BME280;55625;47.072;22.192;2022-10-16T02:37:02;100493.88;;;8.56;100.00
68634;BME280;55625;47.072;22.192;2022-10-16T02:39:30;100489.81;;;8.61;100.00
68634;BME280;55625;47.072;22.192;2022-10-16T02:41:56;100498.63;;;8.66;100.00
68634;BME280;55625;47.072;22.192;2022-10-16T02:44:22;100492.94;;;8.70;100.00
68634;BME280;55625;47.072;22.192;2022-10-16T02:46:48;100498.22;;;8.68;100.00
68634;BME280;55625;47.072;22.192;2022-10-16T02:49:13;100501.88;;;8.65;100.00
68634;BME280;55625;47.072;22.192;2022-10-16T02:51:39;100503.47;;;8.66;100.00
68634;BME280;55625;47.072;22.192;2022-10-16T02:54:05;100501.91;;;8.61;100.00
68634;BME280;55625;47.072;22.192;2022-10-16T02:56:31;100500.31;;;8.60;100.00
68634;BME280;55625;47.072;22.192;2022-10-16T02:58:57;100505.84;;;8.71;100.00
68634;BME280;55625;47.072;22.192;2022-10-16T03:01:23;100512.41;;;8.64;100.00
68634;BME280;55625;47.072;22.192;2022-10-16T03:03:49;100503.06;;;8.67;100.00
68634;BME280;55625;47.072;22.192;2022-10-16T03:06:16;100514.75;;;8.69;100.00
68634;BME280;55625;47.072;22.192;2022-10-16T03:08:41;100521.50;;;8.79;99.46
68634;BME280;55625;47.072;22.192;2022-10-16T03:11:08;100523.50;;;8.82;98.95
68634;BME280;55625;47.072;22.192;2022-10-16T03:13:33;100519.56;;;8.73;99.11
68634;BME280;55625;47.072;22.192;2022-10-16T03:15:59;100532.50;;;8.74;99.27
68634;BME280;55625;47.072;22.192;2022-10-16T03:18:25;100527.59;;;8.78;99.12
68634;BME280;55625;47.072;22.192;2022-10-16T03:20:51;100528.03;;;8.76;99.05
68634;BME280;55625;47.072;22.192;2022-10-16T03:23:16;100538.19;;;8.70;99.25
68634;BME280;55625;47.072;22.192;2022-10-16T03:25:42;100534.94;;;8.71;99.55
68634;BME280;55625;47.072;22.192;2022-10-16T03:28:08;100530.13;;;8.68;99.40
68634;BME280;55625;47.072;22.192;2022-10-16T03:30:34;100543.84;;;8.70;99.28
68634;BME280;55625;47.072;22.192;2022-10-16T03:33:00;100535.78;;;8.68;99.90
68634;BME280;55625;47.072;22.192;2022-10-16T03:35:26;100526.88;;;8.70;99.45
68634;BME280;55625;47.072;22.192;2022-10-16T03:37:52;100532.13;;;8.71;99.10
68634;BME280;55625;47.072;22.192;2022-10-16T03:40:18;100541.41;;;8.72;99.19
68634;BME280;55625;47.072;22.192;2022-10-16T03:42:44;100535.31;;;8.74;98.50
68634;BME280;55625;47.072;22.192;2022-10-16T03:45:11;100545.47;;;8.71;99.11
68634;BME280;55625;47.072;22.192;2022-10-16T03:47:37;100542.72;;;8.64;99.15
68634;BME280;55625;47.072;22.192;2022-10-16T03:50:04;100547.53;;;8.67;98.56
68634;BME280;55625;47.072;22.192;2022-10-16T03:52:30;100549.97;;;8.65;98.88
68634;BME280;55625;47.072;22.192;2022-10-16T03:54:57;100552.84;;;8.61;99.32
68634;BME280;55625;47.072;22.192;2022-10-16T03:57:23;100546.44;;;8.54;99.34
68634;BME280;55625;47.072;22.192;2022-10-16T03:59:49;100550.50;;;8.53;100.00
68634;BME280;55625;47.072;22.192;2022-10-16T04:02:15;100550.44;;;8.56;99.53
68634;BME280;55625;47.072;22.192;2022-10-16T04:04:41;100550.91;;;8.51;99.78
68634;BME280;55625;47.072;22.192;2022-10-16T04:07:06;100544.91;;;8.46;100.00
68634;BME280;55625;47.072;22.192;2022-10-16T04:09:32;100557.84;;;8.47;99.80
68634;BME280;55625;47.072;22.192;2022-10-16T04:11:58;100557.44;;;8.45;99.93
68634;BME280;55625;47.072;22.192;2022-10-16T04:14:24;100549.38;;;8.43;100.00
68634;BME280;55625;47.072;22.192;2022-10-16T04:16:50;100559.47;;;8.44;99.51
68634;BME280;55625;47.072;22.192;2022-10-16T04:19:15;100560.72;;;8.39;99.59
68634;BME280;55625;47.072;22.192;2022-10-16T04:21:41;100561.50;;;8.44;99.07
68634;BME280;55625;47.072;22.192;2022-10-16T04:24:07;100563.59;;;8.32;99.24
68634;BME280;55625;47.072;22.192;2022-10-16T04:26:33;100563.63;;;8.29;99.68
68634;BME280;55625;47.072;22.192;2022-10-16T04:28:59;100570.09;;;8.29;99.59
68634;BME280;55625;47.072;22.192;2022-10-16T04:31:25;100570.09;;;8.29;99.35
68634;BME280;55625;47.072;22.192;2022-10-16T04:33:50;100565.66;;;8.28;100.00
68634;BME280;55625;47.072;22.192;2022-10-16T04:36:16;100571.69;;;8.30;99.53
68634;BME280;55625;47.072;22.192;2022-10-16T04:38:42;100560.00;;;8.28;100.00
68634;BME280;55625;47.072;22.192;2022-10-16T04:41:08;100564.81;;;8.31;100.00
68634;BME280;55625;47.072;22.192;2022-10-16T04:43:34;100568.06;;;8.33;100.00
68634;BME280;55625;47.072;22.192;2022-10-16T04:46:00;100558.75;;;8.36;100.00
68634;BME280;55625;47.072;22.192;2022-10-16T04:48:27;100556.75;;;8.33;100.00
68634;BME280;55625;47.072;22.192;2022-10-16T04:50:53;100566.03;;;8.30;100.00
68634;BME280;55625;47.072;22.192;2022-10-16T04:53:19;100558.78;;;8.29;100.00
68634;BME280;55625;47.072;22.192;2022-10-16T04:55:44;100564.44;;;8.29;100.00
68634;BME280;55625;47.072;22.192;2022-10-16T04:58:11;100562.03;;;8.24;100.00
68634;BME280;55625;47.072;22.192;2022-10-16T05:00:37;100566.03;;;8.34;99.17
68634;BME280;55625;47.072;22.192;2022-10-16T05:03:04;100567.66;;;8.31;99.37
68634;BME280;55625;47.072;22.192;2022-10-16T05:05:33;100568.88;;;8.30;99.54
68634;BME280;55625;47.072;22.192;2022-10-16T05:07:59;100572.53;;;8.24;100.00
68634;BME280;55625;47.072;22.192;2022-10-16T05:10:24;100584.28;;;8.22;100.00
68634;BME280;55625;47.072;22.192;2022-10-16T05:12:50;100577.41;;;8.23;99.93
68634;BME280;55625;47.072;22.192;2022-10-16T05:15:17;100586.69;;;8.24;99.90
68634;BME280;55625;47.072;22.192;2022-10-16T05:17:44;100576.56;;;8.33;99.31
68634;BME280;55625;47.072;22.192;2022-10-16T05:20:10;100578.53;;;8.36;98.92
68634;BME280;55625;47.072;22.192;2022-10-16T05:22:36;100580.50;;;8.43;99.01
68634;BME280;55625;47.072;22.192;2022-10-16T05:25:03;100583.69;;;8.49;98.77
68634;BME280;55625;47.072;22.192;2022-10-16T05:27:29;100580.34;;;8.61;97.62
68634;BME280;55625;47.072;22.192;2022-10-16T05:29:55;100567.34;;;8.67;97.10
68634;BME280;55625;47.072;22.192;2022-10-16T05:32:20;100586.13;;;8.84;96.36
68634;BME280;55625;47.072;22.192;2022-10-16T05:34:46;100588.84;;;8.98;95.05
68634;BME280;55625;47.072;22.192;2022-10-16T05:37:12;100591.09;;;9.11;94.53
68634;BME280;55625;47.072;22.192;2022-10-16T05:39:39;100590.94;;;9.25;93.78
68634;BME280;55625;47.072;22.192;2022-10-16T05:42:05;100594.91;;;9.31;93.60
68634;BME280;55625;47.072;22.192;2022-10-16T05:44:31;100600.88;;;9.40;93.57
68634;BME280;55625;47.072;22.192;2022-10-16T05:46:57;100609.09;;;9.61;92.30
68634;BME280;55625;47.072;22.192;2022-10-16T05:49:23;100602.16;;;9.66;92.30
68634;BME280;55625;47.072;22.192;2022-10-16T05:51:49;100613.28;;;9.80;90.88
68634;BME280;55625;47.072;22.192;2022-10-16T05:54:15;100616.72;;;9.95;90.61
68634;BME280;55625;47.072;22.192;2022-10-16T05:56:41;100605.63;;;10.04;90.43
68634;BME280;55625;47.072;22.192;2022-10-16T05:59:06;100612.44;;;10.10;90.02
68634;BME280;55625;47.072;22.192;2022-10-16T06:01:33;100613.09;;;10.21;89.50
68634;BME280;55625;47.072;22.192;2022-10-16T06:03:59;100615.16;;;10.44;88.49
68634;BME280;55625;47.072;22.192;2022-10-16T06:06:26;100613.50;;;10.47;88.79
68634;BME280;55625;47.072;22.192;2022-10-16T06:08:54;100621.53;;;10.52;89.22
68634;BME280;55625;47.072;22.192;2022-10-16T06:11:23;100623.72;;;10.64;88.58
68634;BME280;55625;47.072;22.192;2022-10-16T06:13:55;100633.47;;;10.86;87.94
68634;BME280;55625;47.072;22.192;2022-10-16T06:16:23;100632.47;;;10.97;87.72
68634;BME280;55625;47.072;22.192;2022-10-16T06:18:52;100630.09;;;11.15;87.02
68634;BME280;55625;47.072;22.192;2022-10-16T06:21:21;100642.06;;;11.26;86.02
68634;BME280;55625;47.072;22.192;2022-10-16T06:23:48;100633.25;;;11.40;85.11
68634;BME280;55625;47.072;22.192;2022-10-16T06:26:18;100638.19;;;11.56;83.93
68634;BME280;55625;47.072;22.192;2022-10-16T06:28:44;100645.41;;;11.61;83.88
68634;BME280;55625;47.072;22.192;2022-10-16T06:31:12;100645.28;;;11.68;82.85
68634;BME280;55625;47.072;22.192;2022-10-16T06:33:38;100636.09;;;11.80;82.50
68634;BME280;55625;47.072;22.192;2022-10-16T06:36:11;100646.06;;;11.88;82.61
68634;BME280;55625;47.072;22.192;2022-10-16T06:38:38;100653.41;;;12.05;82.06
68634;BME280;55625;47.072;22.192;2022-10-16T06:41:05;100644.03;;;12.25;82.06
68634;BME280;55625;47.072;22.192;2022-10-16T06:43:33;100653.47;;;12.38;80.58
68634;BME280;55625;47.072;22.192;2022-10-16T06:46:01;100654.34;;;12.35;81.58
68634;BME280;55625;47.072;22.192;2022-10-16T06:48:30;100665.84;;;12.48;80.39
68634;BME280;55625;47.072;22.192;2022-10-16T06:51:07;100661.59;;;12.56;80.69
68634;BME280;55625;47.072;22.192;2022-10-16T06:53:37;100665.94;;;12.77;79.76
68634;BME280;55625;47.072;22.192;2022-10-16T06:56:15;100669.13;;;12.95;79.75
68634;BME280;55625;47.072;22.192;2022-10-16T06:58:42;100669.53;;;13.10;78.18
68634;BME280;55625;47.072;22.192;2022-10-16T07:01:09;100661.91;;;13.23;77.58
68634;BME280;55625;47.072;22.192;2022-10-16T07:03:38;100678.00;;;13.29;77.80
68634;BME280;55625;47.072;22.192;2022-10-16T07:06:06;100673.44;;;13.61;75.83
68634;BME280;55625;47.072;22.192;2022-10-16T07:08:35;100679.41;;;13.66;74.70
68634;BME280;55625;47.072;22.192;2022-10-16T07:11:03;100687.03;;;13.70;74.93
68634;BME280;55625;47.072;22.192;2022-10-16T07:13:29;100679.06;;;13.77;75.69
68634;BME280;55625;47.072;22.192;2022-10-16T07:15:55;100684.03;;;13.89;75.10
68634;BME280;55625;47.072;22.192;2022-10-16T07:18:21;100687.25;;;14.04;73.69
68634;BME280;55625;47.072;22.192;2022-10-16T07:20:51;100681.06;;;14.06;73.44
68634;BME280;55625;47.072;22.192;2022-10-16T07:23:18;100681.78;;;14.22;73.78
68634;BME280;55625;47.072;22.192;2022-10-16T07:25:43;100677.50;;;14.43;72.00
68634;BME280;55625;47.072;22.192;2022-10-16T07:28:09;100673.81;;;14.68;72.14
68634;BME280;55625;47.072;22.192;2022-10-16T07:30:36;100680.66;;;14.83;71.33
68634;BME280;55625;47.072;22.192;2022-10-16T07:33:03;100672.75;;;15.00;70.51
68634;BME280;55625;47.072;22.192;2022-10-16T07:35:29;100680.69;;;15.18;70.60
68634;BME280;55625;47.072;22.192;2022-10-16T07:37:54;100687.63;;;15.30;68.47
68634;BME280;55625;47.072;22.192;2022-10-16T07:40:21;100690.59;;;15.39;68.82
68634;BME280;55625;47.072;22.192;2022-10-16T07:42:47;100680.53;;;15.56;69.09
68634;BME280;55625;47.072;22.192;2022-10-16T07:45:13;100686.63;;;15.58;68.42
68634;BME280;55625;47.072;22.192;2022-10-16T07:47:38;100688.56;;;15.83;67.08
68634;BME280;55625;47.072;22.192;2022-10-16T07:50:04;100683.25;;;15.94;66.07
68634;BME280;55625;47.072;22.192;2022-10-16T07:52:30;100691.75;;;16.07;64.40
68634;BME280;55625;47.072;22.192;2022-10-16T07:54:56;100685.47;;;16.21;66.55
68634;BME280;55625;47.072;22.192;2022-10-16T07:57:22;100693.22;;;16.42;64.29
68634;BME280;55625;47.072;22.192;2022-10-16T07:59:48;100698.84;;;16.55;64.35
68634;BME280;55625;47.072;22.192;2022-10-16T08:02:13;100694.72;;;16.56;62.98
68634;BME280;55625;47.072;22.192;2022-10-16T08:04:39;100692.09;;;16.80;64.13
68634;BME280;55625;47.072;22.192;2022-10-16T08:07:07;100691.69;;;17.00;63.26
68634;BME280;55625;47.072;22.192;2022-10-16T08:09:34;100692.50;;;17.10;64.04
68634;BME280;55625;47.072;22.192;2022-10-16T08:12:00;100700.50;;;17.42;63.35
68634;BME280;55625;47.072;22.192;2022-10-16T08:14:25;100698.28;;;17.64;61.99
68634;BME280;55625;47.072;22.192;2022-10-16T08:16:51;100692.72;;;17.88;61.40
68634;BME280;55625;47.072;22.192;2022-10-16T08:19:18;100699.06;;;18.11;60.05
68634;BME280;55625;47.072;22.192;2022-10-16T08:21:47;100699.16;;;18.35;60.03
68634;BME280;55625;47.072;22.192;2022-10-16T08:24:13;100697.84;;;18.45;58.88
68634;BME280;55625;47.072;22.192;2022-10-16T08:26:39;100690.47;;;18.53;58.84
68634;BME280;55625;47.072;22.192;2022-10-16T08:29:05;100698.09;;;18.74;58.52
68634;BME280;55625;47.072;22.192;2022-10-16T08:31:30;100694.59;;;18.94;57.56
68634;BME280;55625;47.072;22.192;2022-10-16T08:33:56;100696.59;;;19.12;57.29
68634;BME280;55625;47.072;22.192;2022-10-16T08:36:22;100702.34;;;19.36;56.84
68634;BME280;55625;47.072;22.192;2022-10-16T08:38:49;100693.25;;;19.28;54.93
68634;BME280;55625;47.072;22.192;2022-10-16T08:48:02;100697.00;;;19.82;55.60
68634;BME280;55625;47.072;22.192;2022-10-16T08:50:13;100698.75;;;20.03;53.63
68634;BME280;55625;47.072;22.192;2022-10-16T08:52:44;100706.50;;;20.27;54.39
68634;BME280;55625;47.072;22.192;2022-10-16T08:55:49;100703.63;;;20.41;50.91
68634;BME280;55625;47.072;22.192;2022-10-16T08:58:22;100710.00;;;20.60;51.60
68634;BME280;55625;47.072;22.192;2022-10-16T09:01:01;100705.25;;;20.77;51.89
68634;BME280;55625;47.072;22.192;2022-10-16T09:06:56;100713.91;;;20.92;49.35
68634;BME280;55625;47.072;22.192;2022-10-16T09:09:36;100714.31;;;20.85;48.64
68634;BME280;55625;47.072;22.192;2022-10-16T09:12:39;100710.88;;;21.01;49.50
68634;BME280;55625;47.072;22.192;2022-10-16T09:15:23;100715.31;;;21.17;50.97
68634;BME280;55625;47.072;22.192;2022-10-16T09:23:35;100717.97;;;21.56;49.53
68634;BME280;55625;47.072;22.192;2022-10-16T09:26:03;100709.13;;;21.65;50.35
68634;BME280;55625;47.072;22.192;2022-10-16T09:28:30;100705.94;;;21.83;49.84
68634;BME280;55625;47.072;22.192;2022-10-16T09:30:56;100714.28;;;22.01;48.51
68634;BME280;55625;47.072;22.192;2022-10-16T09:33:33;100693.13;;;22.10;48.37
68634;BME280;55625;47.072;22.192;2022-10-16T09:36:03;100700.59;;;22.22;47.35
68634;BME280;55625;47.072;22.192;2022-10-16T09:38:34;100705.41;;;22.31;47.60
68634;BME280;55625;47.072;22.192;2022-10-16T09:41:16;100700.34;;;22.26;43.74
68634;BME280;55625;47.072;22.192;2022-10-16T09:43:55;100697.66;;;22.17;44.90
68634;BME280;55625;47.072;22.192;2022-10-16T09:46:29;100697.66;;;22.17;45.88
68634;BME280;55625;47.072;22.192;2022-10-16T09:48:59;100694.09;;;22.33;46.66
68634;BME280;55625;47.072;22.192;2022-10-16T09:51:32;100705.28;;;22.46;46.40
68634;BME280;55625;47.072;22.192;2022-10-16T09:54:01;100696.41;;;22.55;46.34
68634;BME280;55625;47.072;22.192;2022-10-16T09:56:33;100699.28;;;22.81;46.19
68634;BME280;55625;47.072;22.192;2022-10-16T09:59:10;100690.19;;;22.99;46.13
68634;BME280;55625;47.072;22.192;2022-10-16T10:04:15;100705.78;;;23.07;45.08
68634;BME280;55625;47.072;22.192;2022-10-16T10:06:54;100692.91;;;23.14;42.64
68634;BME280;55625;47.072;22.192;2022-10-16T10:09:31;100691.50;;;22.98;42.34
68634;BME280;55625;47.072;22.192;2022-10-16T10:12:01;100691.41;;;22.87;42.48
68634;BME280;55625;47.072;22.192;2022-10-16T10:14:52;100694.19;;;22.70;43.71
68634;BME280;55625;47.072;22.192;2022-10-16T10:17:28;100691.59;;;22.78;45.12
68634;BME280;55625;47.072;22.192;2022-10-16T10:22:45;100692.44;;;22.84;45.62
68634;BME280;55625;47.072;22.192;2022-10-16T10:30:59;100684.25;;;23.19;45.09
68634;BME280;55625;47.072;22.192;2022-10-16T10:50:50;100680.00;;;23.15;43.69
68634;BME280;55625;47.072;22.192;2022-10-16T11:02:34;100675.56;;;23.25;44.21
68634;BME280;55625;47.072;22.192;2022-10-16T11:05:23;100682.66;;;23.18;45.21
68634;BME280;55625;47.072;22.192;2022-10-16T11:10:49;100674.78;;;23.24;43.29
68634;BME280;55625;47.072;22.192;2022-10-16T11:13:28;100677.13;;;23.20;44.02
68634;BME280;55625;47.072;22.192;2022-10-16T11:16:01;100676.44;;;22.94;43.84
68634;BME280;55625;47.072;22.192;2022-10-16T11:21:35;100682.13;;;22.14;45.57
68634;BME280;55625;47.072;22.192;2022-10-16T11:26:54;100673.22;;;22.81;43.09
68634;BME280;55625;47.072;22.192;2022-10-16T11:29:29;100663.81;;;22.91;44.77
68634;BME280;55625;47.072;22.192;2022-10-16T11:32:18;100666.50;;;23.01;44.38
68634;BME280;55625;47.072;22.192;2022-10-16T11:34:55;100663.81;;;22.91;43.41
68634;BME280;55625;47.072;22.192;2022-10-16T11:37:32;100671.66;;;22.85;43.40
68634;BME280;55625;47.072;22.192;2022-10-16T11:40:28;100666.56;;;23.12;43.53
68634;BME280;55625;47.072;22.192;2022-10-16T11:43:24;100664.03;;;23.31;44.58
68634;BME280;55625;47.072;22.192;2022-10-16T11:45:55;100661.59;;;23.23;44.16
68634;BME280;55625;47.072;22.192;2022-10-16T11:48:50;100661.56;;;23.12;42.52
68634;BME280;55625;47.072;22.192;2022-10-16T11:51:45;100668.00;;;22.90;43.76
68634;BME280;55625;47.072;22.192;2022-10-16T11:54:37;100669.59;;;22.91;46.29
68634;BME280;55625;47.072;22.192;2022-10-16T11:57:23;100669.47;;;22.75;45.29
68634;BME280;55625;47.072;22.192;2022-10-16T12:00:05;100673.63;;;22.68;45.73
68634;BME280;55625;47.072;22.192;2022-10-16T12:08:15;100662.97;;;22.85;44.06
68634;BME280;55625;47.072;22.192;2022-10-16T12:10:45;100668.53;;;22.89;45.47
68634;BME280;55625;47.072;22.192;2022-10-16T12:13:32;100668.72;;;22.80;43.34
68634;BME280;55625;47.072;22.192;2022-10-16T12:18:42;100663.03;;;22.59;44.44
68634;BME280;55625;47.072;22.192;2022-10-16T12:21:08;100675.00;;;22.41;45.75
68634;BME280;55625;47.072;22.192;2022-10-16T12:26:37;100665.19;;;22.33;46.27
68634;BME280;55625;47.072;22.192;2022-10-16T12:31:58;100667.66;;;22.46;46.73
68634;BME280;55625;47.072;22.192;2022-10-16T12:34:50;100661.50;;;22.33;44.80
68634;BME280;55625;47.072;22.192;2022-10-16T12:37:34;100665.66;;;22.26;44.38
68634;BME280;55625;47.072;22.192;2022-10-16T12:40:35;100665.84;;;22.17;47.22
68634;BME280;55625;47.072;22.192;2022-10-16T12:45:46;100676.13;;;21.97;47.94
68634;BME280;55625;47.072;22.192;2022-10-16T12:48:22;100665.25;;;21.87;47.18
68634;BME280;55625;47.072;22.192;2022-10-16T12:50:48;100671.53;;;21.85;48.30
68634;BME280;55625;47.072;22.192;2022-10-16T12:53:25;100662.16;;;21.70;45.22
68634;BME280;55625;47.072;22.192;2022-10-16T12:56:21;100660.81;;;21.65;46.33
68634;BME280;55625;47.072;22.192;2022-10-16T12:59:06;100662.34;;;21.61;46.51
68634;BME280;55625;47.072;22.192;2022-10-16T13:13:32;100683.56;;;21.17;50.34
68634;BME280;55625;47.072;22.192;2022-10-16T13:27:56;100675.84;;;20.73;49.78
68634;BME280;55625;47.072;22.192;2022-10-16T13:30:26;100673.56;;;20.63;49.56
68634;BME280;55625;47.072;22.192;2022-10-16T13:33:21;100670.31;;;20.55;49.78
68634;BME280;55625;47.072;22.192;2022-10-16T13:35:55;100674.69;;;20.51;50.84
68634;BME280;55625;47.072;22.192;2022-10-16T13:38:25;100677.56;;;20.36;50.98
68634;BME280;55625;47.072;22.192;2022-10-16T13:41:17;100686.63;;;20.29;51.37
68634;BME280;55625;47.072;22.192;2022-10-16T13:43:52;100679.47;;;20.24;51.23
68634;BME280;55625;47.072;22.192;2022-10-16T13:46:22;100682.44;;;20.15;50.63
68634;BME280;55625;47.072;22.192;2022-10-16T13:48:59;100676.47;;;20.19;50.74
68634;BME280;55625;47.072;22.192;2022-10-16T13:51:26;100676.88;;;20.11;51.12
68634;BME280;55625;47.072;22.192;2022-10-16T13:53:53;100678.28;;;20.01;52.05
68634;BME280;55625;47.072;22.192;2022-10-16T13:56:22;100682.22;;;19.89;51.93
68634;BME280;55625;47.072;22.192;2022-10-16T13:59:03;100684.28;;;19.74;51.12
68634;BME280;55625;47.072;22.192;2022-10-16T14:01:42;100680.50;;;19.68;52.11
68634;BME280;55625;47.072;22.192;2022-10-16T14:04:12;100682.50;;;19.62;52.02
68634;BME280;55625;47.072;22.192;2022-10-16T14:06:45;100693.72;;;19.60;51.32
68634;BME280;55625;47.072;22.192;2022-10-16T14:09:24;100689.56;;;19.51;51.31
68634;BME280;55625;47.072;22.192;2022-10-16T14:12:07;100693.03;;;19.41;52.94
68634;BME280;55625;47.072;22.192;2022-10-16T14:14:49;100686.84;;;19.33;53.18
68634;BME280;55625;47.072;22.192;2022-10-16T14:17:24;100695.97;;;19.32;52.69
68634;BME280;55625;47.072;22.192;2022-10-16T14:19:54;100687.69;;;19.24;53.85
68634;BME280;55625;47.072;22.192;2022-10-16T14:22:38;100689.06;;;19.14;54.08
68634;BME280;55625;47.072;22.192;2022-10-16T14:28:04;100692.03;;;18.96;55.20
68634;BME280;55625;47.072;22.192;2022-10-16T14:30:35;100690.50;;;18.86;55.67
68634;BME280;55625;47.072;22.192;2022-10-16T14:38:25;100690.13;;;18.69;55.77
68634;BME280;55625;47.072;22.192;2022-10-16T14:40:51;100696.19;;;18.62;55.91
68634;BME280;55625;47.072;22.192;2022-10-16T14:43:32;100690.78;;;18.55;56.43
68634;BME280;55625;47.072;22.192;2022-10-16T14:45:59;100685.56;;;18.44;57.17
68634;BME280;55625;47.072;22.192;2022-10-16T14:48:25;100694.03;;;18.39;57.47
68634;BME280;55625;47.072;22.192;2022-10-16T14:50:51;100705.06;;;18.31;57.69
68634;BME280;55625;47.072;22.192;2022-10-16T14:53:17;100696.78;;;18.24;57.69
68634;BME280;55625;47.072;22.192;2022-10-16T14:55:44;100702.09;;;18.16;58.14
68634;BME280;55625;47.072;22.192;2022-10-16T14:58:19;100697.97;;;18.08;58.09
68634;BME280;55625;47.072;22.192;2022-10-16T15:00:46;100697.31;;;18.04;58.81
68634;BME280;55625;47.072;22.192;2022-10-16T15:03:12;100699.56;;;18.00;58.73
68634;BME280;55625;47.072;22.192;2022-10-16T15:05:38;100702.75;;;17.93;59.58
68634;BME280;55625;47.072;22.192;2022-10-16T15:08:04;100706.75;;;17.86;60.36
68634;BME280;55625;47.072;22.192;2022-10-16T15:10:31;100709.16;;;17.79;61.02
68634;BME280;55625;47.072;22.192;2022-10-16T15:12:58;100705.50;;;17.69;61.82
68634;BME280;55625;47.072;22.192;2022-10-16T15:15:37;100703.41;;;17.60;62.55